Flight Briefing for CPX790

Departure Arrival
Kingsford Smith International Airport (YSSY)
Click to view FAA NOTAMS
Changi International Airport (WSSS)
Click to view FAA NOTAMS
Departure Time Arrival Time
N/A N/A
Aircraft Distance
MD-11SF 3402nm
Departure METAR Arrival METAR
YSSY 180630Z 03025KT CAVOK 28/18 Q1004 WSSS 180630Z 05006KT 010V080 9999 FEW020 SCT170 30/23 Q1011 NOSIG
Suggested Route
KADOM A576 PKS/N0482F360 A576 AS A587 ONOXA/N0482F380 G326 BLI M635 SURGA


View recent IFR Routes data
Notes



Charts and Procedures

Charts for YSSY
No chart available
Charts for WSSS
No chart available

Ventusky Weather